createdAt,value
2022-09-21T00:00:12.806Z,0.20
2022-09-21T00:00:30.183Z,0.20
2022-09-21T00:00:46.782Z,0.13
2022-09-21T00:01:07.545Z,0.10
2022-09-21T00:01:25.006Z,0.20
2022-09-21T00:01:42.010Z,0.20
2022-09-21T00:01:58.685Z,0.20
2022-09-21T00:02:16.293Z,0.20
2022-09-21T00:02:33.043Z,0.30
2022-09-21T00:02:49.575Z,0.30
2022-09-21T00:03:06.388Z,0.28
2022-09-21T00:03:22.928Z,0.30
2022-09-21T00:03:41.330Z,0.40
2022-09-21T00:03:59.598Z,0.30
2022-09-21T00:04:16.115Z,0.20
2022-09-21T00:04:32.610Z,0.20
2022-09-21T00:04:50.914Z,0.30
2022-09-21T00:05:08.631Z,0.20
2022-09-21T00:05:25.250Z,0.30
2022-09-21T00:05:42.718Z,0.30
2022-09-21T00:06:02.125Z,0.22
2022-09-21T00:06:19.775Z,0.20
2022-09-21T00:06:37.324Z,0.20
2022-09-21T00:06:54.857Z,0.40
2022-09-21T00:07:11.348Z,0.40
2022-09-21T00:07:29.230Z,0.30
2022-09-21T00:07:45.721Z,0.17
2022-09-21T00:08:03.298Z,0.30
2022-09-21T00:08:19.779Z,0.30
2022-09-21T00:08:37.410Z,0.40
2022-09-21T00:08:54.582Z,0.40
2022-09-21T00:09:11.096Z,0.40
2022-09-21T00:09:27.648Z,0.40
2022-09-21T00:09:44.208Z,0.22
2022-09-21T00:10:01.706Z,0.20
2022-09-21T00:10:19.999Z,0.20
2022-09-21T00:10:36.844Z,0.10
2022-09-21T00:10:54.002Z,0.20
2022-09-21T00:11:11.602Z,0.22
2022-09-21T00:11:30.481Z,0.30
2022-09-21T00:11:47.019Z,0.28
2022-09-21T00:12:03.680Z,0.20
2022-09-21T00:12:20.396Z,0.30
2022-09-21T00:12:38.574Z,0.30
2022-09-21T00:12:57.321Z,0.40
2022-09-21T00:13:13.906Z,0.50
2022-09-21T00:13:31.042Z,0.40
2022-09-21T00:13:47.681Z,0.22
2022-09-21T00:14:07.191Z,0.30
2022-09-21T00:14:25.293Z,0.20
2022-09-21T00:14:42.602Z,0.20
2022-09-21T00:14:59.087Z,0.30
2022-09-21T00:15:17.544Z,0.30
2022-09-21T00:15:34.026Z,0.30
2022-09-21T00:15:50.587Z,0.38
2022-09-21T00:16:08.380Z,0.22
2022-09-21T00:16:25.031Z,0.20
2022-09-21T00:16:42.421Z,0.30
2022-09-21T00:16:58.955Z,0.35
2022-09-21T00:17:15.486Z,0.40
2022-09-21T00:17:32.017Z,0.30
2022-09-21T00:17:53.106Z,0.28
2022-09-21T00:18:10.088Z,0.30
2022-09-21T00:18:26.623Z,0.40
2022-09-21T00:18:43.576Z,0.40
2022-09-21T00:19:00.658Z,0.22
2022-09-21T00:19:18.963Z,0.20
2022-09-21T00:19:35.676Z,0.40
2022-09-21T00:19:52.425Z,0.30
2022-09-21T00:20:09.390Z,0.30
2022-09-21T00:20:26.460Z,0.25
2022-09-21T00:20:43.566Z,0.30
2022-09-21T00:21:01.102Z,0.30
2022-09-21T00:21:18.164Z,0.30
2022-09-21T00:21:34.960Z,0.30
2022-09-21T00:21:53.810Z,0.30
2022-09-21T00:22:10.844Z,0.30
2022-09-21T00:22:29.073Z,0.20
2022-09-21T00:22:46.601Z,0.20
2022-09-21T00:23:03.147Z,0.20
2022-09-21T00:23:19.648Z,0.20
2022-09-21T00:23:36.617Z,0.20
2022-09-21T00:23:54.253Z,0.20
2022-09-21T00:24:12.162Z,0.30
2022-09-21T00:24:28.686Z,0.35
2022-09-21T00:24:45.211Z,0.40
2022-09-21T00:25:03.674Z,0.30
2022-09-21T00:25:20.806Z,0.30
2022-09-21T00:25:38.302Z,0.45
2022-09-21T00:26:03.681Z,0.50
2022-09-21T00:26:20.975Z,0.30
2022-09-21T00:26:38.513Z,0.30
2022-09-21T00:26:55.047Z,0.20
2022-09-21T00:27:11.528Z,0.20
2022-09-21T00:27:30.077Z,0.25
2022-09-21T00:27:51.390Z,0.30
2022-09-21T00:28:08.966Z,0.50
2022-09-21T00:28:25.459Z,0.35
2022-09-21T00:28:42.354Z,0.40
2022-09-21T00:28:59.579Z,0.45
2022-09-21T00:29:16.177Z,0.40
2022-09-21T00:29:32.641Z,0.40
2022-09-21T00:29:50.129Z,0.32
2022-09-21T00:30:07.937Z,0.30
2022-09-21T00:30:24.448Z,0.50
2022-09-21T00:30:40.964Z,0.40
2022-09-21T00:31:00.914Z,0.20
2022-09-21T00:31:18.693Z,0.40
2022-09-21T00:31:35.454Z,0.40
2022-09-21T00:31:52.020Z,0.30
2022-09-21T00:32:08.590Z,0.50
2022-09-21T00:32:26.166Z,0.35
2022-09-21T00:32:42.677Z,0.30
2022-09-21T00:32:59.438Z,0.30
2022-09-21T00:33:15.977Z,0.40
2022-09-21T00:33:32.475Z,0.40
2022-09-21T00:33:50.946Z,0.30
2022-09-21T00:34:08.608Z,0.20
2022-09-21T00:34:25.205Z,0.20
2022-09-21T00:34:41.815Z,0.30
2022-09-21T00:34:58.405Z,0.40
2022-09-21T00:35:14.874Z,0.30
2022-09-21T00:35:31.541Z,0.40
2022-09-21T00:35:48.044Z,0.40
2022-09-21T00:36:06.323Z,0.20
2022-09-21T00:36:24.179Z,0.20
2022-09-21T00:36:40.753Z,0.20
2022-09-21T00:36:57.278Z,0.30
2022-09-21T00:37:13.765Z,0.30
2022-09-21T00:37:31.667Z,0.25
2022-09-21T00:37:49.138Z,0.30
2022-09-21T00:38:06.119Z,0.20
2022-09-21T00:38:22.721Z,0.20
2022-09-21T00:38:39.287Z,0.20
2022-09-21T00:38:56.824Z,0.30
2022-09-21T00:39:14.464Z,0.35
2022-09-21T00:39:30.945Z,0.20
2022-09-21T00:39:47.459Z,0.40
2022-09-21T00:40:04.467Z,0.45
2022-09-21T00:40:21.064Z,0.32
2022-09-21T00:40:37.745Z,0.22
2022-09-21T00:40:54.277Z,0.20
2022-09-21T00:41:12.059Z,0.20
2022-09-21T00:41:29.143Z,0.30
2022-09-21T00:41:45.855Z,0.30
2022-09-21T00:42:02.651Z,0.30
2022-09-21T00:42:20.006Z,0.30
2022-09-21T00:42:37.627Z,0.30
2022-09-21T00:42:54.284Z,0.28
2022-09-21T00:43:11.509Z,0.30
2022-09-21T00:43:28.055Z,0.38
2022-09-21T00:43:46.293Z,0.25
2022-09-21T00:44:21.480Z,0.20
2022-09-21T00:44:39.109Z,0.25
2022-09-21T00:44:55.680Z,0.30
2022-09-21T00:45:20.913Z,0.30
2022-09-21T00:45:38.406Z,0.30
2022-09-21T00:45:58.165Z,0.30
2022-09-21T00:46:16.281Z,0.30
2022-09-21T00:46:32.921Z,0.40
2022-09-21T00:46:51.120Z,0.32
2022-09-21T00:47:11.179Z,0.30
2022-09-21T00:47:30.742Z,0.35
2022-09-21T00:47:48.586Z,0.25
2022-09-21T00:48:05.250Z,0.30
2022-09-21T00:48:21.835Z,0.28
2022-09-21T00:48:39.379Z,0.20
2022-09-21T00:48:56.790Z,0.20
2022-09-21T00:49:13.710Z,0.40
2022-09-21T00:49:30.855Z,0.30
2022-09-21T00:49:49.479Z,0.30
2022-09-21T00:50:08.868Z,0.40
2022-09-21T00:50:25.504Z,0.20
2022-09-21T00:50:43.792Z,0.32
2022-09-21T00:51:04.130Z,0.30
2022-09-21T00:51:20.805Z,0.28
2022-09-21T00:51:38.920Z,0.30
2022-09-21T00:51:56.546Z,0.30
2022-09-21T00:52:14.748Z,0.30
2022-09-21T00:52:33.872Z,0.30
2022-09-21T00:52:52.952Z,0.35
2022-09-21T00:53:09.480Z,0.30
2022-09-21T00:53:27.927Z,0.30
2022-09-21T00:53:44.690Z,0.28
2022-09-21T00:54:02.588Z,0.30
2022-09-21T00:54:23.808Z,0.52
2022-09-21T00:54:44.237Z,0.47
2022-09-21T00:55:04.389Z,0.30
2022-09-21T00:55:22.329Z,0.40
2022-09-21T00:55:41.848Z,0.30
2022-09-21T00:56:00.839Z,0.30
2022-09-21T00:56:17.470Z,0.40
2022-09-21T00:56:34.126Z,0.45
2022-09-21T00:56:50.843Z,0.47
2022-09-21T00:57:08.006Z,0.30
2022-09-21T00:57:25.846Z,0.28
2022-09-21T00:57:43.498Z,0.30
2022-09-21T00:58:02.195Z,0.30
2022-09-21T00:58:21.186Z,0.40
2022-09-21T00:58:38.992Z,0.50
2022-09-21T00:58:55.639Z,0.40
2022-09-21T00:59:14.141Z,0.30
2022-09-21T00:59:31.307Z,0.20
2022-09-21T00:59:48.832Z,0.30
2022-09-21T01:00:08.335Z,0.32
2022-09-21T01:00:25.883Z,0.40
2022-09-21T01:00:43.386Z,0.45
2022-09-21T01:01:00.584Z,0.26
2022-09-21T01:01:18.737Z,0.20
2022-09-21T01:01:36.499Z,0.30
2022-09-21T01:01:53.530Z,0.63
2022-09-21T01:02:11.071Z,0.60
2022-09-21T01:02:28.396Z,0.20
2022-09-21T01:02:45.646Z,0.20
2022-09-21T01:03:02.467Z,0.25
2022-09-21T01:03:19.018Z,0.30
2022-09-21T01:03:35.526Z,0.35
2022-09-21T01:03:56.274Z,0.40
2022-09-21T01:04:13.661Z,0.50
2022-09-21T01:04:31.639Z,0.50
2022-09-21T01:04:48.216Z,0.60
2022-09-21T01:05:06.180Z,0.47
2022-09-21T01:05:24.932Z,0.30
2022-09-21T01:05:41.415Z,0.20
2022-09-21T01:05:57.956Z,0.40
2022-09-21T01:06:15.097Z,0.50
2022-09-21T01:06:32.626Z,0.47
2022-09-21T01:06:50.470Z,0.40
2022-09-21T01:07:10.692Z,0.50
2022-09-21T01:07:29.465Z,0.40
2022-09-21T01:07:47.963Z,0.30
2022-09-21T01:08:06.228Z,0.30
2022-09-21T01:08:24.985Z,0.22
2022-09-21T01:08:42.068Z,0.30
2022-09-21T01:08:59.016Z,0.28
2022-09-21T01:09:16.058Z,0.50
2022-09-21T01:09:32.721Z,0.38
2022-09-21T01:09:52.882Z,0.30
2022-09-21T01:10:11.933Z,0.38
2022-09-21T01:10:30.171Z,0.20
2022-09-21T01:10:59.126Z,0.40
2022-09-21T01:11:25.494Z,0.25
2022-09-21T01:11:46.752Z,0.30
2022-09-21T01:12:08.781Z,0.45
2022-09-21T01:12:41.668Z,0.30
2022-09-21T01:13:05.363Z,0.32
2022-09-21T01:13:28.039Z,0.20
2022-09-21T01:13:50.889Z,0.28
2022-09-21T01:14:13.146Z,0.30
2022-09-21T01:14:38.378Z,0.30
2022-09-21T01:15:01.716Z,0.35
2022-09-21T01:15:26.471Z,0.57
2022-09-21T01:15:47.756Z,0.30
2022-09-21T01:16:09.133Z,0.30
2022-09-21T01:16:28.063Z,0.40
2022-09-21T01:16:47.607Z,0.47
2022-09-21T01:17:06.925Z,0.30
2022-09-21T01:17:28.841Z,0.40
2022-09-21T01:17:51.633Z,0.40
2022-09-21T01:18:11.926Z,0.40
2022-09-21T01:18:31.775Z,0.40
2022-09-21T01:18:51.602Z,0.32
2022-09-21T01:19:16.000Z,0.50
2022-09-21T01:19:48.022Z,0.32
2022-09-21T01:20:22.271Z,0.40
2022-09-21T01:20:54.677Z,0.43
2022-09-21T01:21:29.999Z,0.40
2022-09-21T01:21:52.849Z,0.40
2022-09-21T01:22:14.003Z,0.38
2022-09-21T01:22:37.458Z,0.50
2022-09-21T01:23:04.769Z,0.40
2022-09-21T01:23:30.028Z,0.40
2022-09-21T01:24:14.378Z,0.28
2022-09-21T01:24:37.662Z,0.47
2022-09-21T01:25:00.675Z,0.30
2022-09-21T01:25:26.366Z,0.40
2022-09-21T01:25:48.598Z,0.43
2022-09-21T01:26:11.422Z,0.38
2022-09-21T01:26:32.596Z,0.30
2022-09-21T01:27:14.244Z,0.30
2022-09-21T01:27:45.598Z,0.28
2022-09-21T01:28:06.876Z,0.40
2022-09-21T01:28:30.266Z,0.30
2022-09-21T01:29:05.686Z,0.30
2022-09-21T01:29:23.644Z,0.40
2022-09-21T01:29:42.140Z,0.60
2022-09-21T01:29:59.979Z,0.47
2022-09-21T01:30:18.635Z,0.50
2022-09-21T01:30:37.861Z,0.60
2022-09-21T01:30:54.750Z,0.47
2022-09-21T01:31:14.208Z,0.47
2022-09-21T01:31:32.842Z,0.32
2022-09-21T01:31:52.190Z,0.30
2022-09-21T01:32:10.925Z,0.40
2022-09-21T01:32:29.220Z,0.47
2022-09-21T01:32:49.475Z,0.32
2022-09-21T01:33:09.916Z,0.20
2022-09-21T01:33:30.242Z,0.35
2022-09-21T01:33:48.995Z,0.40
2022-09-21T01:34:08.347Z,0.50
2022-09-21T01:34:27.985Z,0.40
2022-09-21T01:34:47.692Z,0.40
2022-09-21T01:35:07.845Z,0.50
2022-09-21T01:35:26.895Z,0.45
2022-09-21T01:35:46.065Z,0.43
2022-09-21T01:36:05.456Z,0.35
2022-09-21T01:36:25.112Z,0.30
2022-09-21T01:36:42.807Z,0.25
2022-09-21T01:37:01.567Z,0.22
2022-09-21T01:37:22.163Z,0.43
2022-09-21T01:37:40.797Z,0.40
2022-09-21T01:37:58.549Z,0.35
2022-09-21T01:38:17.545Z,0.32
2022-09-21T01:38:38.466Z,0.30
2022-09-21T01:38:56.475Z,0.32
2022-09-21T01:39:14.354Z,0.32
2022-09-21T01:39:32.878Z,0.43
2022-09-21T01:39:51.189Z,0.38
2022-09-21T01:40:11.527Z,0.38
2022-09-21T01:40:35.409Z,0.20
2022-09-21T01:40:53.743Z,0.35
2022-09-21T01:41:12.633Z,0.40
2022-09-21T01:41:30.259Z,0.45
2022-09-21T01:41:48.070Z,0.30
2022-09-21T01:42:06.484Z,0.40
2022-09-21T01:42:24.294Z,0.35
2022-09-21T01:42:41.807Z,0.40
2022-09-21T01:42:59.200Z,0.40
2022-09-21T01:43:19.226Z,0.22
2022-09-21T01:43:37.674Z,0.30
2022-09-21T01:43:55.932Z,0.30
2022-09-21T01:44:15.266Z,0.30
2022-09-21T01:44:33.215Z,0.30
2022-09-21T01:44:49.896Z,0.35
2022-09-21T01:45:08.944Z,0.40
2022-09-21T01:45:28.068Z,0.30
2022-09-21T01:45:45.994Z,0.40
2022-09-21T01:46:04.111Z,0.40
2022-09-21T01:46:21.697Z,0.30
2022-09-21T01:46:39.236Z,0.40
2022-09-21T01:46:56.672Z,0.30
2022-09-21T01:47:14.042Z,0.30
2022-09-21T01:47:31.440Z,0.40
2022-09-21T01:47:49.250Z,0.35
2022-09-21T01:48:14.231Z,0.30
2022-09-21T01:48:31.971Z,0.30
2022-09-21T01:48:50.149Z,0.20
2022-09-21T01:49:10.167Z,0.30
2022-09-21T01:49:28.437Z,0.30
2022-09-21T01:49:46.809Z,0.30
2022-09-21T01:50:05.973Z,0.20
2022-09-21T01:50:23.861Z,0.20
2022-09-21T01:50:41.989Z,0.40
2022-09-21T01:50:59.199Z,0.40
2022-09-21T01:51:17.848Z,0.32
2022-09-21T01:51:34.970Z,0.30
2022-09-21T01:51:54.303Z,0.40
2022-09-21T01:52:13.965Z,0.30
2022-09-21T01:52:34.068Z,0.30
2022-09-21T01:52:53.577Z,0.40
2022-09-21T01:53:12.233Z,0.30
2022-09-21T01:53:33.009Z,0.22
2022-09-21T01:53:52.316Z,0.40
2022-09-21T01:54:10.622Z,0.30
2022-09-21T01:54:30.458Z,0.30
2022-09-21T01:54:49.231Z,0.35
2022-09-21T01:55:09.004Z,0.30
2022-09-21T01:55:28.147Z,0.40
2022-09-21T01:55:46.295Z,0.30
2022-09-21T01:56:06.183Z,0.30
2022-09-21T01:56:26.504Z,0.32
2022-09-21T01:56:44.976Z,0.50
2022-09-21T01:57:05.110Z,0.65
2022-09-21T01:57:25.880Z,0.50
2022-09-21T01:57:44.846Z,0.50
2022-09-21T01:58:05.466Z,0.70
2022-09-21T01:58:25.155Z,0.30
2022-09-21T01:58:43.655Z,0.38
2022-09-21T01:59:03.778Z,0.50
2022-09-21T01:59:25.046Z,0.40
2022-09-21T01:59:45.234Z,0.40
2022-09-21T02:00:03.064Z,0.40
2022-09-21T02:00:29.977Z,0.35
2022-09-21T02:00:48.320Z,0.35
2022-09-21T02:01:05.470Z,0.40
2022-09-21T02:01:25.375Z,0.50
2022-09-21T02:01:46.114Z,0.47
2022-09-21T02:02:04.799Z,0.50
2022-09-21T02:02:24.050Z,0.45
2022-09-21T02:02:43.315Z,0.45
2022-09-21T02:03:03.346Z,0.40
2022-09-21T02:03:22.097Z,0.50
2022-09-21T02:03:39.962Z,0.30
2022-09-21T02:03:57.563Z,0.40
2022-09-21T02:04:14.236Z,0.30
2022-09-21T02:04:30.864Z,0.30
2022-09-21T02:04:47.397Z,0.35
2022-09-21T02:05:06.102Z,0.38
2022-09-21T02:05:23.806Z,0.40
2022-09-21T02:05:40.890Z,0.32
2022-09-21T02:05:58.186Z,0.30
2022-09-21T02:06:15.065Z,0.30
2022-09-21T02:06:32.726Z,0.30
2022-09-21T02:06:49.794Z,0.40
2022-09-21T02:07:07.172Z,0.60
2022-09-21T02:07:25.054Z,0.68
2022-09-21T02:07:41.802Z,0.40
2022-09-21T02:07:59.644Z,0.40
2022-09-21T02:08:16.222Z,0.50
2022-09-21T02:08:33.152Z,0.50
2022-09-21T02:08:49.642Z,0.40
2022-09-21T02:09:06.172Z,0.30
2022-09-21T02:09:23.650Z,0.50
2022-09-21T02:09:41.221Z,0.50
2022-09-21T02:09:57.723Z,0.40
2022-09-21T02:10:17.723Z,0.35
2022-09-21T02:10:36.693Z,0.30
2022-09-21T02:10:55.039Z,0.36
2022-09-21T02:11:13.404Z,0.40
2022-09-21T02:11:30.049Z,0.30
2022-09-21T02:11:46.638Z,0.40
2022-09-21T02:12:03.388Z,0.30
2022-09-21T02:12:19.890Z,0.50
2022-09-21T02:12:38.279Z,0.60
2022-09-21T02:13:00.907Z,0.22
2022-09-21T02:13:18.011Z,0.30
2022-09-21T02:13:37.040Z,0.25
2022-09-21T02:13:55.549Z,0.47
2022-09-21T02:14:13.778Z,0.70
2022-09-21T02:14:33.431Z,0.30
2022-09-21T02:14:55.544Z,0.32
2022-09-21T02:15:12.110Z,0.35
2022-09-21T02:15:37.411Z,0.60
2022-09-21T02:16:02.999Z,0.50
2022-09-21T02:16:33.913Z,0.40
2022-09-21T02:16:58.502Z,0.50
2022-09-21T02:17:23.748Z,0.50
2022-09-21T02:17:46.145Z,0.57
2022-09-21T02:18:05.650Z,0.68
2022-09-21T02:18:31.061Z,0.60
2022-09-21T02:18:52.130Z,0.40
2022-09-21T02:19:12.847Z,0.40
2022-09-21T02:19:34.029Z,0.50
2022-09-21T02:19:54.317Z,0.45
2022-09-21T02:20:19.380Z,0.50
2022-09-21T02:20:38.155Z,0.75
2022-09-21T02:20:57.131Z,0.30
2022-09-21T02:21:16.211Z,0.50
2022-09-21T02:21:36.630Z,0.60
2022-09-21T02:21:59.273Z,0.50
2022-09-21T02:22:18.619Z,0.30
2022-09-21T02:22:37.983Z,0.38
2022-09-21T02:23:03.311Z,0.40
2022-09-21T02:23:23.424Z,0.43
2022-09-21T02:23:43.856Z,0.40
2022-09-21T02:24:05.097Z,0.30
2022-09-21T02:24:26.016Z,0.20
2022-09-21T02:24:43.596Z,0.40
2022-09-21T02:25:05.557Z,0.60
2022-09-21T02:25:26.873Z,0.47
2022-09-21T02:25:47.366Z,0.40
2022-09-21T02:26:06.687Z,0.30
2022-09-21T02:26:26.666Z,0.50
2022-09-21T02:26:45.848Z,0.60
2022-09-21T02:27:04.882Z,0.50
2022-09-21T02:27:28.433Z,0.47
2022-09-21T02:27:48.870Z,0.40
2022-09-21T02:28:08.484Z,0.50
2022-09-21T02:28:29.718Z,0.57
2022-09-21T02:28:51.050Z,0.30
2022-09-21T02:29:11.207Z,0.40
2022-09-21T02:29:30.051Z,0.40
2022-09-21T02:29:50.370Z,0.50
2022-09-21T02:30:09.213Z,0.50
2022-09-21T02:30:26.337Z,0.40
2022-09-21T02:30:47.463Z,0.40
2022-09-21T02:31:07.541Z,0.47
2022-09-21T02:31:26.263Z,0.63
2022-09-21T02:31:48.203Z,0.48
2022-09-21T02:32:07.794Z,0.30
2022-09-21T02:32:28.978Z,0.47
2022-09-21T02:32:50.405Z,0.50
2022-09-21T02:33:10.345Z,0.50
2022-09-21T02:33:29.739Z,0.40
2022-09-21T02:33:53.662Z,0.60
2022-09-21T02:34:15.431Z,0.50
2022-09-21T02:34:34.365Z,0.38
2022-09-21T02:34:53.329Z,0.65
2022-09-21T02:35:17.158Z,0.70
2022-09-21T02:35:37.148Z,0.40
2022-09-21T02:35:56.005Z,0.50
2022-09-21T02:36:15.887Z,0.70
2022-09-21T02:36:36.802Z,0.50
2022-09-21T02:36:56.942Z,0.50
2022-09-21T02:37:19.606Z,0.45
2022-09-21T02:37:40.654Z,0.40
2022-09-21T02:38:04.321Z,0.57
2022-09-21T02:38:22.932Z,0.50
2022-09-21T02:38:40.854Z,0.50
2022-09-21T02:39:02.807Z,0.40
2022-09-21T02:39:22.355Z,0.45
2022-09-21T02:39:43.376Z,0.50
2022-09-21T02:40:03.473Z,0.40
2022-09-21T02:40:23.867Z,0.45
2022-09-21T02:40:41.666Z,0.60
2022-09-21T02:41:02.089Z,0.62
2022-09-21T02:41:20.164Z,0.68
2022-09-21T02:41:38.241Z,0.50
2022-09-21T02:41:58.756Z,0.40
2022-09-21T02:42:16.847Z,0.57
2022-09-21T02:42:39.071Z,0.58
2022-09-21T02:42:59.256Z,0.40
2022-09-21T02:43:21.410Z,0.45
2022-09-21T02:43:41.468Z,0.50
2022-09-21T02:44:02.321Z,0.70
2022-09-21T02:44:23.514Z,0.60
2022-09-21T02:44:41.197Z,0.45
2022-09-21T02:45:03.437Z,0.40
2022-09-21T02:45:22.149Z,0.40
2022-09-21T02:45:42.220Z,0.50
2022-09-21T02:46:01.275Z,0.55
2022-09-21T02:46:19.738Z,0.50
2022-09-21T02:46:39.057Z,0.50
2022-09-21T02:46:58.295Z,0.43
2022-09-21T02:47:17.931Z,0.40
2022-09-21T02:47:37.254Z,0.60
2022-09-21T02:47:57.435Z,0.68
2022-09-21T02:48:15.824Z,0.50
2022-09-21T02:48:34.351Z,0.52
2022-09-21T02:48:53.793Z,0.70
2022-09-21T02:49:12.656Z,0.60
2022-09-21T02:49:31.492Z,0.65
2022-09-21T02:49:51.715Z,0.70
2022-09-21T02:50:11.319Z,0.57
2022-09-21T02:50:33.921Z,0.40
2022-09-21T02:50:52.407Z,0.60
2022-09-21T02:51:10.555Z,0.40
2022-09-21T02:51:29.442Z,0.47
2022-09-21T02:51:48.742Z,0.68
2022-09-21T02:52:07.759Z,0.60
2022-09-21T02:52:26.375Z,0.50
2022-09-21T02:52:44.103Z,0.70
2022-09-21T02:53:01.621Z,0.63
2022-09-21T02:53:22.457Z,0.57
2022-09-21T02:53:39.759Z,0.40
2022-09-21T02:53:56.814Z,0.50
2022-09-21T02:54:15.005Z,0.50
2022-09-21T02:54:32.498Z,0.50
2022-09-21T02:54:51.487Z,0.60
2022-09-21T02:55:08.775Z,0.70
2022-09-21T02:55:25.690Z,0.30
2022-09-21T02:55:44.796Z,0.30
2022-09-21T02:56:06.860Z,0.20
2022-09-21T02:56:24.604Z,0.30
2022-09-21T02:56:41.906Z,0.50
2022-09-21T02:56:59.728Z,0.50
2022-09-21T02:57:16.894Z,0.43
2022-09-21T02:57:33.403Z,0.43
2022-09-21T02:57:50.063Z,0.63
2022-09-21T02:58:08.829Z,0.82
2022-09-21T02:58:27.025Z,0.63
2022-09-21T02:58:46.739Z,0.63
2022-09-21T02:59:04.617Z,0.55
2022-09-21T02:59:23.616Z,0.70
2022-09-21T02:59:40.333Z,0.70
2022-09-21T02:59:57.885Z,0.60
2022-09-21T03:00:16.341Z,0.60
2022-09-21T03:00:33.770Z,0.50
2022-09-21T03:00:50.390Z,0.50
2022-09-21T03:01:08.836Z,0.50
2022-09-21T03:01:26.843Z,0.38
2022-09-21T03:01:43.434Z,0.40
2022-09-21T03:02:00.073Z,0.47
2022-09-21T03:02:16.719Z,0.65
2022-09-21T03:02:36.863Z,0.50
2022-09-21T03:02:54.358Z,0.40
2022-09-21T03:03:17.392Z,0.60
2022-09-21T03:03:34.008Z,0.70
2022-09-21T03:03:50.601Z,0.62
2022-09-21T03:04:07.109Z,0.60
2022-09-21T03:04:25.146Z,0.57
2022-09-21T03:04:43.639Z,0.60
2022-09-21T03:05:00.233Z,0.70
2022-09-21T03:05:16.744Z,0.68
2022-09-21T03:05:33.869Z,0.75
2022-09-21T03:05:51.862Z,0.80
2022-09-21T03:06:08.407Z,0.80
2022-09-21T03:06:25.993Z,0.77
2022-09-21T03:06:42.550Z,0.70
2022-09-21T03:06:59.091Z,0.65
2022-09-21T03:07:15.950Z,0.50
2022-09-21T03:07:32.671Z,0.50
2022-09-21T03:07:49.246Z,0.60
2022-09-21T03:08:06.753Z,0.60
2022-09-21T03:08:23.282Z,0.57
2022-09-21T03:08:39.782Z,0.60
2022-09-21T03:08:58.520Z,0.55
2022-09-21T03:09:15.081Z,0.50
2022-09-21T03:09:31.620Z,0.50
2022-09-21T03:09:49.076Z,0.50
2022-09-21T03:10:08.166Z,0.50
2022-09-21T03:10:25.565Z,0.57
2022-09-21T03:10:42.060Z,0.52
2022-09-21T03:10:58.522Z,0.65
2022-09-21T03:11:17.148Z,0.60
2022-09-21T03:11:36.008Z,0.70
2022-09-21T03:11:52.495Z,0.65
2022-09-21T03:12:09.245Z,0.50
2022-09-21T03:12:26.795Z,0.60
2022-09-21T03:12:44.699Z,0.60
2022-09-21T03:13:02.179Z,0.30
2022-09-21T03:13:18.863Z,0.40
2022-09-21T03:13:36.690Z,0.40
2022-09-21T03:13:53.356Z,0.40
2022-09-21T03:14:09.959Z,0.50
2022-09-21T03:14:27.485Z,0.60
2022-09-21T03:14:44.322Z,0.45
2022-09-21T03:15:00.839Z,0.60
2022-09-21T03:15:18.695Z,0.50
2022-09-21T03:15:35.222Z,0.40
2022-09-21T03:15:59.109Z,0.40
2022-09-21T03:16:16.659Z,0.40
2022-09-21T03:16:33.198Z,0.30
2022-09-21T03:16:49.693Z,0.45
2022-09-21T03:17:06.211Z,0.50
2022-09-21T03:17:22.920Z,0.32
2022-09-21T03:17:40.419Z,0.35
2022-09-21T03:17:56.884Z,0.40
2022-09-21T03:18:13.780Z,0.50
2022-09-21T03:18:30.662Z,0.40
2022-09-21T03:18:47.187Z,0.40
2022-09-21T03:19:05.073Z,0.40
2022-09-21T03:19:21.551Z,0.20
2022-09-21T03:19:38.083Z,0.50
2022-09-21T03:19:55.036Z,0.80
2022-09-21T03:20:11.558Z,0.65
2022-09-21T03:20:28.077Z,0.44
2022-09-21T03:20:47.063Z,0.45
2022-09-21T03:21:03.778Z,0.40
2022-09-21T03:21:20.322Z,0.40
2022-09-21T03:21:39.219Z,0.55
2022-09-21T03:22:00.102Z,0.60
2022-09-21T03:22:17.850Z,0.65
2022-09-21T03:22:34.363Z,0.70
2022-09-21T03:22:50.854Z,0.84
2022-09-21T03:23:07.792Z,0.80
2022-09-21T03:23:25.368Z,0.60
2022-09-21T03:23:41.950Z,0.60
2022-09-21T03:23:58.417Z,0.40
2022-09-21T03:24:34.996Z,0.60
2022-09-21T03:24:57.364Z,0.47
2022-09-21T03:25:14.048Z,0.40
2022-09-21T03:25:31.085Z,0.45
2022-09-21T03:25:47.937Z,0.50
2022-09-21T03:26:04.915Z,0.80
2022-09-21T03:26:22.482Z,0.75
2022-09-21T03:26:39.013Z,0.50
2022-09-21T03:26:55.495Z,0.60
2022-09-21T03:27:12.215Z,0.50
2022-09-21T03:27:28.713Z,0.40
2022-09-21T03:27:46.190Z,0.43
2022-09-21T03:28:02.752Z,0.40
2022-09-21T03:28:19.912Z,0.52
2022-09-21T03:28:36.391Z,0.40
2022-09-21T03:28:54.657Z,0.30
2022-09-21T03:29:12.322Z,0.50
2022-09-21T03:29:28.810Z,0.55
2022-09-21T03:29:45.505Z,0.40
2022-09-21T03:30:02.714Z,0.57
2022-09-21T03:30:20.923Z,0.63
2022-09-21T03:30:37.410Z,0.50
2022-09-21T03:30:54.984Z,0.70
2022-09-21T03:31:12.193Z,0.57
2022-09-21T03:31:28.826Z,0.60
2022-09-21T03:31:45.534Z,0.57
2022-09-21T03:32:02.218Z,0.40
2022-09-21T03:32:19.684Z,0.40
2022-09-21T03:32:36.181Z,0.50
2022-09-21T03:32:53.314Z,0.60
2022-09-21T03:33:10.659Z,0.45
2022-09-21T03:33:27.156Z,0.70
2022-09-21T03:33:43.679Z,0.40
2022-09-21T03:34:01.142Z,0.44
2022-09-21T03:34:17.702Z,0.55
2022-09-21T03:34:34.287Z,0.60
2022-09-21T03:34:50.934Z,0.55
2022-09-21T03:35:08.226Z,0.40
2022-09-21T03:35:26.552Z,0.38
2022-09-21T03:35:43.639Z,0.50
2022-09-21T03:36:00.280Z,0.50
2022-09-21T03:36:18.049Z,0.40
2022-09-21T03:36:34.591Z,0.40
2022-09-21T03:36:51.078Z,0.32
2022-09-21T03:37:08.398Z,0.30
2022-09-21T03:37:25.994Z,0.30
2022-09-21T03:37:42.484Z,0.43
2022-09-21T03:37:59.452Z,0.50
2022-09-21T03:38:16.731Z,0.78
2022-09-21T03:38:33.275Z,0.88
2022-09-21T03:38:50.748Z,0.80
2022-09-21T03:39:07.220Z,0.55
2022-09-21T03:39:23.827Z,0.50
2022-09-21T03:39:40.477Z,0.40
2022-09-21T03:39:56.989Z,0.35
2022-09-21T03:40:13.884Z,0.60
2022-09-21T03:40:31.437Z,0.57
2022-09-21T03:40:48.970Z,0.47
2022-09-21T03:41:05.901Z,0.40
2022-09-21T03:41:22.437Z,0.58
2022-09-21T03:41:39.149Z,0.60
2022-09-21T03:41:56.877Z,0.40
2022-09-21T03:42:14.388Z,0.40
2022-09-21T03:42:30.871Z,0.30
2022-09-21T03:42:47.432Z,0.50
2022-09-21T03:43:03.995Z,0.50
2022-09-21T03:43:20.483Z,0.50
2022-09-21T03:43:37.971Z,0.60
2022-09-21T03:43:54.487Z,0.47
2022-09-21T03:44:11.032Z,0.40
2022-09-21T03:44:27.542Z,0.40
2022-09-21T03:44:44.432Z,0.45
2022-09-21T03:45:01.135Z,0.55
2022-09-21T03:45:18.666Z,0.60
2022-09-21T03:45:37.962Z,0.60
2022-09-21T03:45:54.471Z,0.50
2022-09-21T03:46:11.044Z,0.50
2022-09-21T03:46:27.834Z,0.50
2022-09-21T03:46:45.516Z,0.38
2022-09-21T03:47:02.049Z,0.52
2022-09-21T03:47:18.568Z,0.60
2022-09-21T03:47:35.126Z,0.57
2022-09-21T03:47:54.322Z,0.75
2022-09-21T03:48:12.591Z,0.70
2022-09-21T03:48:29.085Z,0.75
2022-09-21T03:48:47.695Z,0.80
2022-09-21T03:49:04.192Z,0.80
2022-09-21T03:49:20.713Z,0.85
2022-09-21T03:49:38.767Z,0.80
2022-09-21T03:49:55.408Z,0.80
2022-09-21T03:50:12.071Z,0.57
2022-09-21T03:50:29.046Z,0.55
2022-09-21T03:50:46.570Z,0.70
2022-09-21T03:51:03.131Z,0.77
2022-09-21T03:51:19.614Z,0.93
2022-09-21T03:51:36.143Z,0.70
2022-09-21T03:51:52.639Z,0.60
2022-09-21T03:52:10.099Z,0.93
2022-09-21T03:52:26.611Z,1.00
2022-09-21T03:52:43.163Z,0.70
2022-09-21T03:52:59.681Z,0.60
2022-09-21T03:53:16.674Z,0.50
2022-09-21T03:53:34.131Z,0.50
2022-09-21T03:53:50.867Z,0.65
2022-09-21T03:54:07.489Z,0.70
2022-09-21T03:54:24.233Z,0.52
2022-09-21T03:54:40.745Z,0.40
2022-09-21T03:54:58.397Z,0.40
2022-09-21T03:55:14.899Z,0.50
2022-09-21T03:55:33.107Z,0.40
2022-09-21T03:55:49.591Z,0.50
2022-09-21T03:56:06.131Z,0.60
2022-09-21T03:56:23.618Z,0.52
2022-09-21T03:56:40.109Z,0.50
2022-09-21T03:56:56.633Z,0.30
2022-09-21T03:57:13.203Z,0.35
2022-09-21T03:57:29.687Z,0.50
2022-09-21T03:57:47.119Z,0.38
2022-09-21T03:58:03.717Z,0.50
2022-09-21T03:58:20.282Z,0.43
2022-09-21T03:58:36.790Z,0.40
2022-09-21T03:58:53.290Z,0.57
2022-09-21T03:59:13.931Z,0.63
2022-09-21T03:59:32.078Z,0.57
2022-09-21T03:59:48.902Z,0.38
2022-09-21T04:00:06.872Z,0.50
2022-09-21T04:00:23.412Z,0.70
2022-09-21T04:00:41.263Z,0.50
2022-09-21T04:01:02.058Z,0.47
2022-09-21T04:01:18.663Z,0.45
2022-09-21T04:01:36.238Z,0.60
2022-09-21T04:01:52.791Z,0.50
2022-09-21T04:02:09.351Z,0.50
2022-09-21T04:02:27.187Z,0.47
2022-09-21T04:02:43.778Z,0.35
2022-09-21T04:03:02.003Z,0.38
2022-09-21T04:03:18.649Z,0.47
2022-09-21T04:03:35.178Z,0.40
2022-09-21T04:03:51.684Z,0.45
2022-09-21T04:04:09.314Z,0.40
2022-09-21T04:04:25.821Z,0.35
2022-09-21T04:04:42.331Z,0.40
2022-09-21T04:04:58.837Z,0.50
2022-09-21T04:05:15.979Z,0.57
2022-09-21T04:05:33.437Z,0.77
2022-09-21T04:05:49.961Z,0.57
2022-09-21T04:06:08.585Z,0.47
2022-09-21T04:06:25.673Z,0.40
2022-09-21T04:06:42.175Z,0.43
2022-09-21T04:06:59.675Z,0.50